Time;durP1;ratioP1;P1;durP2;ratioP2;P2;SDS_P1;SDS_P2;PMS_P1;PMS_P2;Temp;Humidity;BMP_temperature;BMP_pressure;BME280_temperature;BME280_humidity;BME280_pressure;Samples;Min_cycle;Max_cycle;Signal;HPM_P1;HPM_P2
2022/01/23 00:00:55;;;;;;;2.90;2.63;;;;;;;4.39;100.00;102134.66;5069176;28;20194;-72
2022/01/23 00:03:21;;;;;;;6.53;5.63;;;;;;;4.36;100.00;102135.94;5068932;28;20179;-72
2022/01/23 00:05:49;;;;;;;6.17;5.23;;;;;;;4.34;100.00;102140.78;5070163;28;20174;-72
2022/01/23 00:08:19;;;;;;;6.53;4.53;;;;;;;4.34;100.00;102127.25;5070258;28;20220;-73
2022/01/23 00:10:46;;;;;;;7.03;5.47;;;;;;;4.35;100.00;102138.88;5070480;28;20178;-72
2022/01/23 00:13:27;;;;;;;3.57;3.27;;;;;;;4.33;100.00;102124.72;5070537;28;20198;-72
2022/01/23 00:18:37;;;;;;;2.73;1.87;;;;;;;4.30;100.00;102136.03;5078598;28;20243;-72
2022/01/23 00:21:03;;;;;;;5.20;4.13;;;;;;;4.26;100.00;102134.81;5079445;28;20273;-72
2022/01/23 00:31:23;;;;;;;3.73;2.67;;;;;;;4.19;100.00;102129.50;5070729;28;20524;-72
2022/01/23 00:33:49;;;;;;;5.37;3.07;;;;;;;4.21;100.00;102134.69;5068908;28;20313;-72
2022/01/23 00:36:14;;;;;;;4.93;3.80;;;;;;;4.20;100.00;102125.75;5068581;28;20596;-72
2022/01/23 00:38:40;;;;;;;20.53;5.30;;;;;;;4.22;100.00;102120.13;5068811;28;20698;-72
2022/01/23 00:41:05;;;;;;;4.43;3.60;;;;;;;4.24;100.00;102129.66;5068807;28;20175;-72
2022/01/23 00:43:32;;;;;;;5.80;4.23;;;;;;;4.24;100.00;102121.53;5068915;28;20232;-72
2022/01/23 00:46:48;;;;;;;7.23;4.23;;;;;;;4.29;100.00;102126.25;5068871;28;20175;-72
2022/01/23 00:51:21;;;;;;;4.23;3.57;;;;;;;4.26;100.00;102132.13;5070499;28;20151;-72
2022/01/23 00:53:46;;;;;;;4.33;3.80;;;;;;;4.24;100.00;102128.81;5069038;28;20538;-72
2022/01/23 00:56:12;;;;;;;5.00;4.43;;;;;;;4.26;100.00;102134.81;5068945;28;20181;-73
2022/01/23 00:58:37;;;;;;;4.23;3.40;;;;;;;4.25;100.00;102141.28;5073662;28;20181;-73
2022/01/23 01:01:02;;;;;;;8.00;3.13;;;;;;;4.28;100.00;102132.72;5073592;28;20178;-72
2022/01/23 01:03:28;;;;;;;4.23;2.87;;;;;;;4.24;100.00;102123.41;5073555;28;20174;-72
2022/01/23 01:05:54;;;;;;;3.03;2.73;;;;;;;4.23;100.00;102136.13;5073309;28;20174;-72
2022/01/23 01:08:19;;;;;;;1.23;1.13;;;;;;;4.22;100.00;102122.81;5073775;28;20174;-72
2022/01/23 01:11:00;;;;;;;3.90;3.00;;;;;;;4.20;100.00;102130.34;5072127;28;20647;-72
2022/01/23 01:13:31;;;;;;;3.77;3.37;;;;;;;4.19;100.00;102126.78;5073327;28;20673;-72
2022/01/23 01:32:06;;;;;;;5.93;4.47;;;;;;;4.21;100.00;102135.53;5072481;28;20192;-72
2022/01/23 01:34:48;;;;;;;3.70;3.37;;;;;;;4.24;100.00;102140.47;5081911;28;20187;-72
2022/01/23 01:37:13;;;;;;;3.50;3.20;;;;;;;4.25;100.00;102139.41;5087263;28;20177;-72
2022/01/23 01:39:39;;;;;;;3.20;2.90;;;;;;;4.23;100.00;102140.69;5073234;28;20171;-72
2022/01/23 01:42:05;;;;;;;3.40;3.10;;;;;;;4.22;100.00;102133.63;5071585;28;20370;-72
2022/01/23 01:44:31;;;;;;;4.73;1.50;;;;;;;4.21;100.00;102153.63;5072722;28;20220;-72
2022/01/23 01:46:56;;;;;;;4.27;3.83;;;;;;;4.19;100.00;102143.00;5071337;28;20178;-71
2022/01/23 01:49:28;;;;;;;4.00;3.70;;;;;;;4.21;100.00;102142.81;5072882;28;20177;-72
2022/01/23 01:51:55;;;;;;;4.63;4.23;;;;;;;4.21;100.00;102148.22;5072678;28;20167;-73
2022/01/23 01:54:23;;;;;;;9.07;5.20;;;;;;;4.20;100.00;102154.69;5072540;28;20202;-72
2022/01/23 01:57:04;;;;;;;5.80;4.80;;;;;;;4.18;100.00;102149.47;5071147;28;20663;-72
2022/01/23 02:00:00;;;;;;;4.43;3.20;;;;;;;4.18;100.00;102157.59;5072367;28;20175;-72
2022/01/23 02:10:34;;;;;;;4.13;3.73;;;;;;;4.08;100.00;102149.19;5072542;28;20217;-73
2022/01/23 02:13:12;;;;;;;4.20;3.80;;;;;;;4.05;100.00;102144.22;5072244;28;20233;-73
2022/01/23 02:18:29;;;;;;;3.47;2.33;;;;;;;3.97;100.00;102141.84;5072158;28;20575;-72
2022/01/23 02:24:02;;;;;;;5.77;5.20;;;;;;;3.94;100.00;102134.19;5071873;28;20193;-72
2022/01/23 02:51:42;;;;;;;3.83;1.83;;;;;;;3.57;100.00;102126.84;5071495;28;20657;-72
2022/01/23 02:56:52;;;;;;;2.67;2.20;;;;;;;3.48;100.00;102132.78;5071286;28;20535;-72
2022/01/23 02:59:27;;;;;;;3.40;2.57;;;;;;;3.45;100.00;102136.75;5069732;28;20182;-72
2022/01/23 03:04:39;;;;;;;3.17;2.87;;;;;;;3.41;100.00;102150.94;5071199;28;20252;-72
2022/01/23 03:12:28;;;;;;;5.87;5.37;;;;;;;3.42;100.00;102142.59;5071293;28;20239;-72
2022/01/23 03:15:01;;;;;;;4.23;2.67;;;;;;;3.44;100.00;102143.19;5070699;28;20178;-72
2022/01/23 03:33:45;;;;;;;3.67;3.07;;;;;;;3.63;100.00;102154.88;5070773;28;20689;-72
2022/01/23 03:36:10;;;;;;;5.13;3.30;;;;;;;3.65;100.00;102154.66;5070302;28;20173;-72
2022/01/23 03:38:35;;;;;;;4.20;3.87;;;;;;;3.67;100.00;102155.25;5070563;28;20623;-72
2022/01/23 03:41:01;;;;;;;4.60;2.53;;;;;;;3.68;100.00;102140.69;5069291;28;20183;-72
2022/01/23 03:43:29;;;;;;;5.17;3.07;;;;;;;3.69;100.00;102158.56;5070645;28;20178;-72
2022/01/23 03:51:12;;;;;;;2.80;2.43;;;;;;;3.73;100.00;102173.28;5071018;28;20167;-72
2022/01/23 03:53:38;;;;;;;2.77;2.43;;;;;;;3.75;100.00;102166.59;5070586;28;20197;-72
2022/01/23 03:56:03;;;;;;;3.63;2.93;;;;;;;3.79;100.00;102169.69;5070228;28;20201;-72
2022/01/23 03:58:29;;;;;;;2.63;2.17;;;;;;;3.79;100.00;102150.78;5069097;28;20182;-72
2022/01/23 04:00:55;;;;;;;2.80;2.60;;;;;;;3.80;100.00;102147.84;5068699;28;20183;-72
2022/01/23 04:03:20;;;;;;;3.03;2.50;;;;;;;3.80;100.00;102157.84;5069590;28;20182;-72
2022/01/23 04:05:46;;;;;;;1.60;1.50;;;;;;;3.79;100.00;102148.06;5082302;28;20180;-72
2022/01/23 04:08:12;;;;;;;3.03;2.17;;;;;;;3.73;100.00;102146.25;5069509;28;20513;-72
2022/01/23 04:10:39;;;;;;;1.93;1.77;;;;;;;3.68;100.00;102151.50;5070375;28;20228;-72
2022/01/23 04:13:29;;;;;;;1.87;1.50;;;;;;;3.66;100.00;102150.91;5068977;28;20411;-72
2022/01/23 04:16:15;;;;;;;2.87;2.07;;;;;;;3.66;100.00;102150.91;5070136;28;20261;-71
2022/01/23 04:32:43;;;;;;;2.30;2.10;;;;;;;3.62;100.00;102166.75;5072193;28;20249;-71
2022/01/23 04:45:50;;;;;;;2.50;1.77;;;;;;;3.59;100.00;102176.09;5073672;28;20392;-72
2022/01/23 05:02:34;;;;;;;1.77;1.60;;;;;;;3.59;100.00;102172.56;5073630;28;20204;-72
2022/01/23 05:04:54;;;;;;;2.50;2.23;;;;;;;3.58;100.00;102174.44;5073641;28;20186;-72
2022/01/23 05:07:25;;;;;;;3.90;3.53;;;;;;;3.59;100.00;102173.41;5073404;28;20643;-72
2022/01/23 05:09:51;;;;;;;2.00;1.63;;;;;;;3.59;100.00;102176.09;5073365;28;20191;-72
2022/01/23 05:12:16;;;;;;;3.43;3.13;;;;;;;3.60;100.00;102174.22;5071765;28;20572;-72
2022/01/23 05:14:45;;;;;;;2.53;1.97;;;;;;;3.64;100.00;102180.03;5073009;28;20207;-72
2022/01/23 05:17:14;;;;;;;3.73;3.03;;;;;;;3.65;100.00;102187.91;5071847;28;20201;-72
2022/01/23 05:19:41;;;;;;;3.37;3.10;;;;;;;3.68;100.00;102183.94;5071743;28;20183;-72
2022/01/23 05:25:02;;;;;;;4.70;4.07;;;;;;;3.71;100.00;102199.69;5072518;28;20619;-72
2022/01/23 05:27:29;;;;;;;3.60;3.30;;;;;;;3.70;100.00;102206.16;5071355;28;20265;-72
2022/01/23 05:29:55;;;;;;;5.40;4.67;;;;;;;3.69;100.00;102208.03;5073034;28;20181;-72
2022/01/23 05:32:23;;;;;;;2.40;2.20;;;;;;;3.67;100.00;102203.91;5072797;28;20170;-72
2022/01/23 05:34:48;;;;;;;4.47;3.20;;;;;;;3.64;100.00;102202.47;5072220;28;20217;-72
2022/01/23 05:37:16;;;;;;;2.23;2.00;;;;;;;3.62;100.00;102198.31;5072509;28;20194;-72
2022/01/23 05:39:41;;;;;;;2.63;2.43;;;;;;;3.58;100.00;102203.34;5071382;28;20174;-72
2022/01/23 05:42:08;;;;;;;5.00;2.90;;;;;;;3.56;100.00;102200.88;5072453;28;20178;-72
2022/01/23 05:44:36;;;;;;;3.03;2.40;;;;;;;3.57;100.00;102201.69;5069844;28;20273;-72
2022/01/23 05:47:02;;;;;;;5.77;3.17;;;;;;;3.57;100.00;102209.81;5072460;28;20166;-72
2022/01/23 05:49:28;;;;;;;6.17;3.23;;;;;;;3.57;100.00;102193.59;5072508;28;20181;-72
2022/01/23 05:51:54;;;;;;;4.33;3.93;;;;;;;3.59;100.00;102210.41;5071292;28;20178;-72
2022/01/23 05:54:19;;;;;;;1.63;1.33;;;;;;;3.61;100.00;102202.06;5072511;28;20209;-72
2022/01/23 05:56:44;;;;;;;6.03;2.03;;;;;;;3.61;100.00;102207.47;5070949;28;20170;-72
2022/01/23 05:59:10;;;;;;;3.57;3.00;;;;;;;3.60;100.00;102212.06;5072237;28;20171;-72
2022/01/23 06:01:35;;;;;;;2.67;2.43;;;;;;;3.64;100.00;102201.66;5072503;28;20266;-72
2022/01/23 06:04:00;;;;;;;0.57;0.57;;;;;;;3.65;100.00;102224.94;5071089;28;20167;-72
2022/01/23 06:06:26;;;;;;;3.37;2.40;;;;;;;3.63;100.00;102218.91;5072224;28;20680;-72
2022/01/23 06:08:51;;;;;;;2.17;1.53;;;;;;;3.65;100.00;102214.13;5070730;28;20185;-72
2022/01/23 06:11:16;;;;;;;2.43;2.00;;;;;;;3.64;100.00;102212.47;5070432;28;20178;-72
2022/01/23 06:13:42;;;;;;;1.40;1.30;;;;;;;3.64;100.00;102210.59;5070572;28;20202;-72
2022/01/23 06:16:07;;;;;;;1.67;1.37;;;;;;;3.64;100.00;102212.47;5070556;28;20187;-72
2022/01/23 06:18:36;;;;;;;2.20;2.00;;;;;;;3.64;100.00;102210.59;5071797;28;20175;-72
2022/01/23 06:21:02;;;;;;;2.43;2.17;;;;;;;3.65;100.00;102200.59;5070592;28;20174;-72
2022/01/23 06:23:30;;;;;;;2.30;1.90;;;;;;;3.66;100.00;102211.19;5070304;28;20186;-72
2022/01/23 06:25:56;;;;;;;1.50;1.40;;;;;;;3.69;100.00;102220.72;5071888;28;20538;-72
2022/01/23 06:28:33;;;;;;;0.40;0.40;;;;;;;3.69;100.00;102226.13;5071688;28;20175;-72
2022/01/23 06:30:58;;;;;;;2.43;2.33;;;;;;;3.68;100.00;102219.91;5070332;28;20185;-73
2022/01/23 06:33:23;;;;;;;1.37;1.20;;;;;;;3.67;100.00;102214.72;5071715;28;20206;-72
2022/01/23 06:35:49;;;;;;;1.93;1.63;;;;;;;3.68;100.00;102219.06;5071566;28;20630;-72
2022/01/23 06:38:14;;;;;;;1.87;1.70;;;;;;;3.67;100.00;102234.47;5071531;28;20622;-71
2022/01/23 06:40:40;;;;;;;1.40;1.30;;;;;;;3.69;100.00;102239.66;5071618;28;20174;-71
2022/01/23 06:43:05;;;;;;;1.50;1.40;;;;;;;3.68;100.00;102235.28;5070181;28;20269;-72
2022/01/23 06:45:30;;;;;;;2.47;1.87;;;;;;;3.68;100.00;102233.41;5071550;28;20201;-72
2022/01/23 06:47:56;;;;;;;1.37;1.27;;;;;;;3.66;100.00;102232.81;5070041;28;20178;-72
2022/01/23 06:50:21;;;;;;;3.93;3.00;;;;;;;3.66;100.00;102240.09;5071424;28;20175;-71
2022/01/23 06:52:46;;;;;;;1.93;1.63;;;;;;;3.66;100.00;102245.50;5069891;28;20247;-72
2022/01/23 06:55:12;;;;;;;2.77;2.57;;;;;;;3.65;100.00;102241.97;5071245;28;20532;-72
2022/01/23 06:57:37;;;;;;;2.70;2.20;;;;;;;3.66;100.00;102242.78;5071206;28;20504;-72
2022/01/23 07:00:04;;;;;;;1.50;1.40;;;;;;;3.63;100.00;102230.56;5069893;28;20174;-72
2022/01/23 07:02:29;;;;;;;1.53;1.43;;;;;;;3.62;100.00;102247.81;5071090;28;20178;-72
2022/01/23 07:04:56;;;;;;;1.53;1.30;;;;;;;3.61;100.00;102234.50;5071012;28;20178;-72
2022/01/23 07:07:22;;;;;;;1.67;1.57;;;;;;;3.61;100.00;102237.22;5070999;28;20177;-71
2022/01/23 07:09:47;;;;;;;2.83;2.53;;;;;;;3.61;100.00;102239.91;5070978;28;20261;-72
2022/01/23 07:12:12;;;;;;;1.43;0.97;;;;;;;3.61;100.00;102245.31;5071052;28;20209;-72
2022/01/23 07:14:38;;;;;;;2.23;2.10;;;;;;;3.62;100.00;102247.81;5069626;28;20198;-71
2022/01/23 07:17:03;;;;;;;1.83;1.73;;;;;;;3.59;100.00;102243.66;5075020;28;20179;-72
2022/01/23 07:19:29;;;;;;;0.67;0.67;;;;;;;3.61;100.00;102245.31;5082095;28;20174;-72
2022/01/23 07:21:54;;;;;;;2.43;2.23;;;;;;;3.60;100.00;102241.78;5067996;28;20209;-71
2022/01/23 07:24:20;;;;;;;1.70;1.03;;;;;;;3.59;100.00;102246.38;5070845;28;20197;-72
2022/01/23 07:26:45;;;;;;;2.53;2.33;;;;;;;3.61;100.00;102258.81;5079754;28;20183;-73
2022/01/23 07:29:11;;;;;;;3.63;2.40;;;;;;;3.64;100.00;102263.81;5070767;28;20182;-72
2022/01/23 07:34:05;;;;;;;1.53;1.30;;;;;;;3.64;100.00;102259.25;5070738;28;20210;-72
2022/01/23 07:36:30;;;;;;;5.30;2.30;;;;;;;3.64;100.00;102261.94;5070237;28;20228;-72
2022/01/23 07:38:56;;;;;;;0.87;0.83;;;;;;;3.65;100.00;102273.56;5069410;28;20202;-72
2022/01/23 07:41:22;;;;;;;1.07;1.07;;;;;;;3.66;100.00;102272.53;5070664;28;20528;-72
2022/01/23 07:43:47;;;;;;;1.47;1.37;;;;;;;3.66;100.00;102272.53;5070608;28;20206;-72
2022/01/23 07:46:13;;;;;;;1.37;1.07;;;;;;;3.66;100.00;102281.47;5070608;28;20181;-72
2022/01/23 07:48:38;;;;;;;0.73;0.73;;;;;;;3.68;100.00;102273.97;5068949;28;20201;-72
2022/01/23 07:51:04;;;;;;;2.00;1.77;;;;;;;3.69;100.00;102275.59;5070631;28;20174;-72
2022/01/23 07:53:29;;;;;;;1.37;1.27;;;;;;;3.71;100.00;102272.69;5070722;28;20327;-72
2022/01/23 07:55:55;;;;;;;1.30;1.13;;;;;;;3.73;100.00;102276.00;5068930;28;20224;-72
2022/01/23 07:58:20;;;;;;;2.33;2.13;;;;;;;3.73;100.00;102274.09;5069285;28;20174;-72
2022/01/23 08:00:47;;;;;;;0.47;0.47;;;;;;;3.74;100.00;102280.34;5070359;28;20228;-72
2022/01/23 08:03:13;;;;;;;1.10;1.10;;;;;;;3.75;100.00;102292.81;5070322;28;20685;-72
2022/01/23 08:05:38;;;;;;;1.77;1.33;;;;;;;3.74;100.00;102283.88;5070077;28;20183;-72
2022/01/23 08:08:04;;;;;;;1.93;1.83;;;;;;;3.75;100.00;102280.13;5074086;28;20174;-72
2022/01/23 08:10:30;;;;;;;1.87;1.70;;;;;;;3.77;100.00;102288.03;5074544;28;20548;-72
2022/01/23 08:12:55;;;;;;;3.57;2.73;;;;;;;3.76;100.00;102283.66;5072978;28;20346;-74
2022/01/23 08:15:21;;;;;;;2.50;2.30;;;;;;;3.77;100.00;102288.03;5074170;28;20202;-73
2022/01/23 08:17:46;;;;;;;2.27;2.07;;;;;;;3.77;100.00;102288.03;5073001;28;20178;-73
2022/01/23 08:20:11;;;;;;;3.30;2.80;;;;;;;3.77;100.00;102285.34;5074241;28;20181;-73
2022/01/23 08:22:37;;;;;;;2.33;1.60;;;;;;;3.78;100.00;102295.09;5074096;28;20228;-73
2022/01/23 08:25:03;;;;;;;2.47;2.27;;;;;;;3.80;100.00;102298.41;5073978;28;20653;-72
2022/01/23 08:27:30;;;;;;;2.03;1.63;;;;;;;3.81;100.00;102297.34;5073926;28;20166;-73
2022/01/23 08:29:55;;;;;;;1.80;1.50;;;;;;;3.84;100.00;102305.84;5073938;28;20492;-72
2022/01/23 08:32:21;;;;;;;3.13;2.30;;;;;;;3.86;100.00;102305.63;5073909;28;20526;-73
2022/01/23 08:34:46;;;;;;;3.27;3.07;;;;;;;3.87;100.00;102315.38;5073629;28;20182;-72
2022/01/23 08:37:12;;;;;;;0.97;0.70;;;;;;;3.89;100.00;102315.97;5072589;28;20173;-72
2022/01/23 08:39:39;;;;;;;0.67;0.57;;;;;;;3.91;100.00;102316.63;5073808;28;20225;-73
2022/01/23 08:42:11;;;;;;;2.43;1.93;;;;;;;3.93;100.00;102319.09;5073904;28;20171;-73
2022/01/23 08:44:37;;;;;;;5.53;3.57;;;;;;;3.96;100.00;102327.59;5073717;28;20181;-73
2022/01/23 08:47:03;;;;;;;2.77;2.27;;;;;;;3.98;100.00;102321.97;5072274;28;20166;-73
2022/01/23 08:49:29;;;;;;;3.27;2.97;;;;;;;4.01;100.00;102326.91;5073558;28;20179;-73
2022/01/23 08:51:57;;;;;;;2.57;2.30;;;;;;;4.05;100.00;102317.31;5073732;28;20182;-73
2022/01/23 08:54:24;;;;;;;1.27;1.10;;;;;;;4.03;100.00;102312.13;5073555;28;20206;-74
2022/01/23 08:56:50;;;;;;;2.37;2.03;;;;;;;4.06;100.00;102325.22;5073347;28;20175;-72
2022/01/23 08:59:15;;;;;;;1.13;0.77;;;;;;;4.07;100.00;102321.47;5073485;28;20701;-73
2022/01/23 09:01:41;;;;;;;1.77;1.67;;;;;;;4.09;100.00;102315.84;5072160;28;20175;-73
2022/01/23 09:04:07;;;;;;;1.63;1.43;;;;;;;4.11;100.00;102329.97;5073780;28;20249;-72
2022/01/23 09:06:33;;;;;;;0.70;0.70;;;;;;;4.12;100.00;102334.31;5076664;28;20179;-72
2022/01/23 09:09:00;;;;;;;3.03;2.47;;;;;;;4.13;100.00;102330.56;5081977;28;20510;-73
2022/01/23 09:14:06;;;;;;;1.60;1.47;;;;;;;4.17;100.00;102337.16;5074720;28;20190;-72
2022/01/23 09:16:43;;;;;;;0.87;0.87;;;;;;;4.16;100.00;102338.22;5075703;28;20178;-71
2022/01/23 09:19:09;;;;;;;1.67;1.57;;;;;;;4.14;100.00;102333.03;5082772;28;20179;-71
2022/01/23 09:21:36;;;;;;;0.70;0.63;;;;;;;4.16;100.00;102339.03;5091528;28;20178;-71
2022/01/23 09:24:02;;;;;;;2.83;2.53;;;;;;;4.17;100.00;102335.28;5081419;28;20217;-71
2022/01/23 09:26:28;;;;;;;2.73;2.10;;;;;;;4.22;100.00;102333.81;5073111;28;20254;-71
2022/01/23 09:28:56;;;;;;;1.33;1.23;;;;;;;4.28;100.00;102336.44;5073193;28;20722;-71
2022/01/23 09:31:48;;;;;;;3.00;1.70;;;;;;;4.30;100.00;102341.63;5073122;28;20192;-71
2022/01/23 09:34:11;;;;;;;2.10;1.57;;;;;;;4.26;100.00;102337.72;5072736;28;20739;-70
2022/01/23 09:36:36;;;;;;;6.20;1.73;;;;;;;4.30;100.00;102338.94;5071680;28;20178;-71
2022/01/23 09:39:03;;;;;;;2.77;2.37;;;;;;;4.34;100.00;102337.44;5071633;28;20623;-71
2022/01/23 09:41:31;;;;;;;2.83;2.40;;;;;;;4.38;100.00;102330.53;5072990;28;20216;-71
2022/01/23 09:44:00;;;;;;;2.60;2.40;;;;;;;4.40;100.00;102334.66;5072827;28;20232;-70
2022/01/23 09:46:25;;;;;;;1.93;1.83;;;;;;;4.42;100.00;102327.16;5072710;28;20434;-74
2022/01/23 09:48:52;;;;;;;2.97;2.23;;;;;;;4.48;100.00;102338.94;5072529;28;20183;-74
2022/01/23 09:51:20;;;;;;;1.50;1.40;;;;;;;4.44;100.00;102335.88;5072754;28;20170;-71
2022/01/23 09:53:46;;;;;;;4.10;2.13;;;;;;;4.47;100.00;102343.53;5072901;28;20242;-71
2022/01/23 09:56:14;;;;;;;2.47;2.27;;;;;;;4.50;100.00;102336.88;5072632;28;20189;-71
2022/01/23 09:58:40;;;;;;;1.73;1.63;;;;;;;4.54;100.00;102332.66;5071344;28;20175;-71
2022/01/23 10:01:06;;;;;;;3.30;2.90;;;;;;;4.55;100.00;102339.72;5072642;28;20182;-70
2022/01/23 10:03:31;;;;;;;5.27;3.07;;;;;;;4.61;100.00;102344.22;5071240;28;20517;-71
2022/01/23 10:05:57;;;;;;;1.80;1.70;;;;;;;4.65;100.00;102350.88;5070851;28;20185;-71
2022/01/23 10:08:27;;;;;;;2.73;2.47;;;;;;;4.69;100.00;102359.34;5071117;28;20178;-71
2022/01/23 10:10:54;;;;;;;2.70;1.90;;;;;;;4.71;100.00;102349.94;5072503;28;20197;-72
2022/01/23 10:13:27;;;;;;;2.50;2.30;;;;;;;4.72;100.00;102351.59;5070923;28;20201;-73
2022/01/23 10:15:53;;;;;;;3.17;2.87;;;;;;;4.76;100.00;102350.09;5072220;28;20181;-75
2022/01/23 10:18:19;;;;;;;3.93;3.00;;;;;;;4.81;100.00;102348.59;5072151;28;20567;-75
2022/01/23 10:20:46;;;;;;;2.73;2.37;;;;;;;4.85;100.00;102360.63;5072194;28;20323;-75
2022/01/23 10:23:13;;;;;;;2.50;2.30;;;;;;;4.86;100.00;102356.88;5070890;28;20320;-75
2022/01/23 10:25:41;;;;;;;4.10;3.10;;;;;;;4.83;100.00;102352.75;5071907;28;20159;-72
2022/01/23 10:28:08;;;;;;;4.30;2.70;;;;;;;4.86;100.00;102346.03;5070677;28;20572;-74
2022/01/23 10:30:44;;;;;;;1.73;1.23;;;;;;;4.87;100.00;102345.81;5071373;28;20171;-74
2022/01/23 10:33:25;;;;;;;2.30;1.87;;;;;;;4.88;100.00;102352.88;5071915;28;20205;-75
2022/01/23 10:36:00;;;;;;;6.73;3.20;;;;;;;4.89;100.00;102335.56;5071519;28;20183;-72
2022/01/23 10:38:36;;;;;;;8.23;2.00;;;;;;;4.93;100.00;102353.06;5070273;28;20615;-72
2022/01/23 10:49:08;;;;;;;9.07;3.63;;;;;;;5.00;100.00;102356.50;5071568;28;20239;-71
2022/01/23 10:51:36;;;;;;;4.70;3.03;;;;;;;5.04;100.00;102343.31;5071654;28;20174;-71
2022/01/23 10:54:02;;;;;;;4.23;3.77;;;;;;;5.04;100.00;102349.56;5071359;28;20210;-71
2022/01/23 10:56:29;;;;;;;3.17;2.77;;;;;;;5.13;100.00;102333.00;5071027;28;20177;-71
2022/01/23 10:59:09;;;;;;;4.13;3.30;;;;;;;5.14;100.00;102337.38;5071105;28;20257;-75
2022/01/23 11:01:35;;;;;;;2.90;2.60;;;;;;;5.10;100.00;102331.59;5071362;28;20166;-71
2022/01/23 11:04:06;;;;;;;3.47;2.87;;;;;;;5.11;100.00;102340.53;5071039;28;20217;-71
2022/01/23 11:06:32;;;;;;;3.80;3.50;;;;;;;5.11;100.00;102335.94;5069462;28;20220;-71
2022/01/23 11:09:10;;;;;;;3.20;2.90;;;;;;;5.14;100.00;102332.78;5070860;28;20659;-71
2022/01/23 11:11:49;;;;;;;7.67;2.60;;;;;;;5.15;100.00;102329.00;5070890;28;20219;-71
2022/01/23 11:19:47;;;;;;;3.17;2.53;;;;;;;5.17;100.00;102326.06;5071001;28;20264;-71
2022/01/23 11:22:23;;;;;;;4.37;3.97;;;;;;;5.21;100.00;102333.53;5069388;28;20191;-72
2022/01/23 11:24:50;;;;;;;4.30;3.13;;;;;;;5.21;100.00;102330.81;5070411;28;20243;-71
2022/01/23 11:27:18;;;;;;;5.10;3.53;;;;;;;5.21;100.00;102328.09;5070561;28;20393;-71
2022/01/23 11:30:03;;;;;;;3.70;3.37;;;;;;;5.24;100.00;102318.69;5070511;28;20174;-72
2022/01/23 11:32:35;;;;;;;2.00;1.73;;;;;;;5.25;100.00;102317.63;5070602;28;20285;-72
2022/01/23 11:35:07;;;;;;;2.03;1.47;;;;;;;5.19;100.00;102322.06;5070178;28;20182;-71
2022/01/23 11:37:34;;;;;;;2.73;2.30;;;;;;;5.14;100.00;102327.34;5069360;28;20178;-72
2022/01/23 11:40:07;;;;;;;4.30;3.50;;;;;;;5.19;100.00;102330.19;5070626;28;20166;-71
2022/01/23 11:51:06;;;;;;;2.63;2.43;;;;;;;5.29;100.00;102325.06;5070654;28;20189;-72
2022/01/23 11:53:46;;;;;;;3.40;3.10;;;;;;;5.28;100.00;102326.13;5070404;28;20194;-72
2022/01/23 11:56:39;;;;;;;4.50;4.10;;;;;;;5.36;100.00;102324.97;5068609;28;20174;-71
2022/01/23 11:59:10;;;;;;;2.70;2.50;;;;;;;5.28;100.00;102328.81;5070210;28;20542;-71
2022/01/23 12:01:39;;;;;;;4.57;3.53;;;;;;;5.27;100.00;102323.63;5070608;28;20170;-71
2022/01/23 12:04:16;;;;;;;3.13;2.17;;;;;;;5.28;100.00;102326.13;5070575;28;20181;-71
2022/01/23 12:06:44;;;;;;;3.43;2.83;;;;;;;5.31;100.00;102328.34;5070098;28;20653;-72
2022/01/23 12:09:09;;;;;;;3.83;3.50;;;;;;;5.33;100.00;102322.72;5068871;28;20301;-71
2022/01/23 12:11:47;;;;;;;3.70;3.33;;;;;;;5.31;100.00;102320.22;5070167;28;20710;-72
2022/01/23 12:16:54;;;;;;;3.73;3.40;;;;;;;5.33;100.00;102314.56;5070266;28;20350;-72
2022/01/23 12:19:25;;;;;;;3.23;2.93;;;;;;;5.33;100.00;102306.44;5068849;28;20638;-71
2022/01/23 12:21:53;;;;;;;3.23;2.70;;;;;;;5.34;100.00;102305.38;5070075;28;20638;-71
2022/01/23 12:24:22;;;;;;;6.07;3.97;;;;;;;5.35;100.00;102302.47;5069863;28;20643;-72
2022/01/23 12:26:48;;;;;;;1.83;1.30;;;;;;;5.37;100.00;102299.53;5068580;28;20166;-72
2022/01/23 12:29:23;;;;;;;3.13;2.83;;;;;;;5.35;100.00;102297.06;5068864;28;20171;-71
2022/01/23 12:32:10;;;;;;;3.73;3.40;;;;;;;5.39;100.00;102308.25;5069986;28;20193;-71
2022/01/23 12:34:56;;;;;;;3.47;3.17;;;;;;;5.40;100.00;102292.81;5069409;28;20210;-71
2022/01/23 12:37:22;;;;;;;2.67;2.47;;;;;;;5.41;100.00;102308.03;5069920;28;20248;-72
2022/01/23 12:40:22;;;;;;;4.13;3.17;;;;;;;5.43;100.00;102314.03;5069983;28;20170;-71
2022/01/23 12:43:07;;;;;;;3.53;2.47;;;;;;;5.46;100.00;102306.25;5069975;28;20650;-71
2022/01/23 12:45:58;;;;;;;3.03;2.57;;;;;;;5.45;100.00;102296.47;5069584;28;20344;-71
2022/01/23 12:48:27;;;;;;;3.80;3.27;;;;;;;5.45;100.00;102301.06;5068586;28;20187;-71
2022/01/23 12:51:03;;;;;;;3.17;2.87;;;;;;;5.49;100.00;102303.06;5069891;28;20171;-71
2022/01/23 12:53:57;;;;;;;2.17;1.73;;;;;;;5.50;100.00;102306.66;5072508;28;20591;-71
2022/01/23 12:56:30;;;;;;;3.47;3.17;;;;;;;5.48;100.00;102298.72;5073269;28;20182;-71
2022/01/23 12:59:00;;;;;;;2.63;2.43;;;;;;;5.49;100.00;102307.69;5073767;28;20166;-72
2022/01/23 13:01:27;;;;;;;3.20;2.97;;;;;;;5.50;100.00;102295.81;5074130;28;20713;-72
2022/01/23 13:03:59;;;;;;;2.97;2.60;;;;;;;5.51;100.00;102294.75;5072434;28;20175;-71
2022/01/23 13:06:31;;;;;;;4.07;2.73;;;;;;;5.53;100.00;102288.03;5072094;28;20206;-71
2022/01/23 13:12:10;;;;;;;2.80;2.37;;;;;;;5.58;100.00;102290.03;5073517;28;20628;-71
2022/01/23 13:14:43;;;;;;;3.17;2.87;;;;;;;5.59;100.00;102281.66;5073440;28;20225;-71
2022/01/23 13:26:21;;;;;;;1.63;1.53;;;;;;;5.63;100.00;102284.72;5073467;28;20623;-72
2022/01/23 13:30:31;;;;;;;2.17;1.97;;;;;;;5.59;100.00;102280.84;5073122;28;20678;-72
2022/01/23 13:33:07;;;;;;;3.07;2.77;;;;;;;5.57;100.00;102289.19;5073050;28;20198;-72
2022/01/23 13:35:38;;;;;;;3.43;3.13;;;;;;;5.60;100.00;102293.31;5071526;28;20536;-72
2022/01/23 13:38:09;;;;;;;6.63;1.77;;;;;;;5.56;100.00;102284.84;5071853;28;20639;-71
2022/01/23 13:40:39;;;;;;;2.40;1.77;;;;;;;5.55;100.00;102296.75;5073022;28;20162;-72
2022/01/23 13:59:50;;;;;;;2.20;1.97;;;;;;;5.63;100.00;102304.53;5072760;28;20653;-71
2022/01/23 14:02:27;;;;;;;4.03;2.53;;;;;;;5.66;100.00;102303.25;5071346;28;20198;-71
2022/01/23 14:05:02;;;;;;;1.87;1.67;;;;;;;5.67;100.00;102310.34;5069963;28;20178;-71
2022/01/23 14:07:29;;;;;;;4.47;3.07;;;;;;;5.70;100.00;102295.47;5070977;28;20588;-72
2022/01/23 14:09:56;;;;;;;3.90;2.87;;;;;;;5.71;100.00;102295.25;5072423;28;20186;-71
2022/01/23 14:12:23;;;;;;;3.83;2.93;;;;;;;5.73;100.00;102293.13;5071022;28;20213;-72
2022/01/23 14:15:05;;;;;;;5.67;2.73;;;;;;;5.72;100.00;102290.66;5071889;28;20297;-71
2022/01/23 14:17:36;;;;;;;2.60;2.40;;;;;;;5.67;100.00;102292.19;5072074;28;20171;-72
2022/01/23 14:20:11;;;;;;;2.20;2.00;;;;;;;5.67;100.00;102297.59;5072073;28;20663;-71
2022/01/23 14:22:39;;;;;;;2.93;2.33;;;;;;;5.65;100.00;102294.31;5070665;28;20576;-71
2022/01/23 14:25:17;;;;;;;2.50;1.90;;;;;;;5.66;100.00;102289.72;5070413;28;20217;-71
2022/01/23 14:28:05;;;;;;;2.80;2.53;;;;;;;5.68;100.00;102295.72;5070587;28;20201;-73
2022/01/23 14:30:30;;;;;;;2.73;2.30;;;;;;;5.70;100.00;102254.81;5071903;28;20174;-71
2022/01/23 14:33:05;;;;;;;2.50;2.30;;;;;;;5.67;100.00;102272.38;5071794;28;20222;-71
2022/01/23 14:35:32;;;;;;;3.33;3.03;;;;;;;5.67;100.00;102284.03;5071151;28;20162;-72
2022/01/23 14:38:11;;;;;;;2.53;2.33;;;;;;;5.66;100.00;102282.41;5071758;28;20175;-71
2022/01/23 14:40:37;;;;;;;3.53;2.67;;;;;;;5.65;100.00;102272.59;5071711;28;20710;-71
2022/01/23 14:43:10;;;;;;;3.60;3.30;;;;;;;5.63;100.00;102292.84;5070355;28;20241;-71
2022/01/23 14:45:42;;;;;;;3.30;3.03;;;;;;;5.59;100.00;102270.81;5071810;28;20421;-72
2022/01/23 14:48:09;;;;;;;3.17;2.73;;;;;;;5.61;100.00;102284.13;5071696;28;20634;-71
2022/01/23 14:50:37;;;;;;;3.87;2.43;;;;;;;5.54;100.00;102284.25;5071569;28;20166;-71
2022/01/23 14:53:11;;;;;;;1.57;1.43;;;;;;;5.48;100.00;102277.03;5071436;28;20546;-72
2022/01/23 14:55:39;;;;;;;0.73;0.63;;;;;;;5.43;100.00;102285.03;5069914;28;20186;-71